sensor_id;sensor_type;location;lat;lon;timestamp;temperature;humidity
13409;DHT22;6775;49.574;11.170;2023-07-13T00:01:09;21.80;95.90
13409;DHT22;6775;49.574;11.170;2023-07-13T00:03:37;21.80;95.90
13409;DHT22;6775;49.574;11.170;2023-07-13T00:06:08;21.80;95.90
13409;DHT22;6775;49.574;11.170;2023-07-13T00:08:37;21.80;95.90
13409;DHT22;6775;49.574;11.170;2023-07-13T00:11:05;21.70;96.00
13409;DHT22;6775;49.574;11.170;2023-07-13T00:13:33;21.70;96.10
13409;DHT22;6775;49.574;11.170;2023-07-13T00:16:03;21.70;96.30
13409;DHT22;6775;49.574;11.170;2023-07-13T00:18:31;21.70;96.30
13409;DHT22;6775;49.574;11.170;2023-07-13T00:20:59;21.70;96.30
13409;DHT22;6775;49.574;11.170;2023-07-13T00:23:32;21.70;96.50
13409;DHT22;6775;49.574;11.170;2023-07-13T00:26:01;21.60;96.60
13409;DHT22;6775;49.574;11.170;2023-07-13T00:28:30;21.60;96.70
13409;DHT22;6775;49.574;11.170;2023-07-13T00:30:58;21.50;96.80
13409;DHT22;6775;49.574;11.170;2023-07-13T00:33:28;21.50;96.90
13409;DHT22;6775;49.574;11.170;2023-07-13T00:35:57;21.50;97.00
13409;DHT22;6775;49.574;11.170;2023-07-13T00:38:25;21.40;97.10
13409;DHT22;6775;49.574;11.170;2023-07-13T00:40:53;21.40;97.20
13409;DHT22;6775;49.574;11.170;2023-07-13T00:43:23;21.40;97.40
13409;DHT22;6775;49.574;11.170;2023-07-13T00:46:14;21.30;97.50
13409;DHT22;6775;49.574;11.170;2023-07-13T00:48:48;21.20;97.80
13409;DHT22;6775;49.574;11.170;2023-07-13T00:51:20;21.20;98.00
13409;DHT22;6775;49.574;11.170;2023-07-13T00:53:53;21.20;98.00
13409;DHT22;6775;49.574;11.170;2023-07-13T00:56:24;21.10;97.90
13409;DHT22;6775;49.574;11.170;2023-07-13T00:58:53;21.10;97.90
13409;DHT22;6775;49.574;11.170;2023-07-13T01:01:21;21.10;97.80
13409;DHT22;6775;49.574;11.170;2023-07-13T01:03:50;21.10;98.00
13409;DHT22;6775;49.574;11.170;2023-07-13T01:06:18;21.10;98.00
13409;DHT22;6775;49.574;11.170;2023-07-13T01:08:47;21.00;98.10
13409;DHT22;6775;49.574;11.170;2023-07-13T01:11:19;21.00;98.10
13409;DHT22;6775;49.574;11.170;2023-07-13T01:13:49;20.90;98.00
13409;DHT22;6775;49.574;11.170;2023-07-13T01:16:21;20.90;98.40
13409;DHT22;6775;49.574;11.170;2023-07-13T01:18:54;20.90;98.10
13409;DHT22;6775;49.574;11.170;2023-07-13T01:21:27;20.80;98.10
13409;DHT22;6775;49.574;11.170;2023-07-13T01:23:57;20.80;98.00
13409;DHT22;6775;49.574;11.170;2023-07-13T01:26:26;20.80;98.00
13409;DHT22;6775;49.574;11.170;2023-07-13T01:28:54;20.70;98.40
13409;DHT22;6775;49.574;11.170;2023-07-13T01:31:23;20.70;98.20
13409;DHT22;6775;49.574;11.170;2023-07-13T01:33:51;20.70;98.30
13409;DHT22;6775;49.574;11.170;2023-07-13T01:36:20;20.60;98.50
13409;DHT22;6775;49.574;11.170;2023-07-13T01:38:50;20.60;98.40
13409;DHT22;6775;49.574;11.170;2023-07-13T01:41:18;20.50;98.50
13409;DHT22;6775;49.574;11.170;2023-07-13T01:43:46;20.50;98.50
13409;DHT22;6775;49.574;11.170;2023-07-13T01:46:14;20.40;98.60
13409;DHT22;6775;49.574;11.170;2023-07-13T01:48:50;20.40;98.60
13409;DHT22;6775;49.574;11.170;2023-07-13T01:51:19;20.40;98.50
13409;DHT22;6775;49.574;11.170;2023-07-13T01:53:49;20.40;98.60
13409;DHT22;6775;49.574;11.170;2023-07-13T01:56:18;20.30;98.60
13409;DHT22;6775;49.574;11.170;2023-07-13T01:58:46;20.30;98.50
13409;DHT22;6775;49.574;11.170;2023-07-13T02:01:15;20.30;98.60
13409;DHT22;6775;49.574;11.170;2023-07-13T02:03:43;20.20;98.70
13409;DHT22;6775;49.574;11.170;2023-07-13T02:06:11;20.10;98.60
13409;DHT22;6775;49.574;11.170;2023-07-13T02:08:40;20.20;98.80
13409;DHT22;6775;49.574;11.170;2023-07-13T02:11:11;20.10;98.90
13409;DHT22;6775;49.574;11.170;2023-07-13T02:13:39;20.10;99.00
13409;DHT22;6775;49.574;11.170;2023-07-13T02:16:07;20.10;99.10
13409;DHT22;6775;49.574;11.170;2023-07-13T02:18:36;20.00;99.00
13409;DHT22;6775;49.574;11.170;2023-07-13T02:21:04;19.90;99.00
13409;DHT22;6775;49.574;11.170;2023-07-13T02:23:32;19.90;99.00
13409;DHT22;6775;49.574;11.170;2023-07-13T02:26:01;19.90;99.00
13409;DHT22;6775;49.574;11.170;2023-07-13T02:28:32;19.90;99.00
13409;DHT22;6775;49.574;11.170;2023-07-13T02:31:08;19.90;99.00
13409;DHT22;6775;49.574;11.170;2023-07-13T02:33:38;19.80;99.00
13409;DHT22;6775;49.574;11.170;2023-07-13T02:36:06;19.80;99.10
13409;DHT22;6775;49.574;11.170;2023-07-13T02:38:36;19.70;99.30
13409;DHT22;6775;49.574;11.170;2023-07-13T02:41:05;19.60;99.60
13409;DHT22;6775;49.574;11.170;2023-07-13T02:43:37;19.50;99.90
13409;DHT22;6775;49.574;11.170;2023-07-13T02:46:05;19.50;99.90
13409;DHT22;6775;49.574;11.170;2023-07-13T02:48:35;19.40;99.90
13409;DHT22;6775;49.574;11.170;2023-07-13T02:51:05;19.30;99.90
13409;DHT22;6775;49.574;11.170;2023-07-13T02:53:34;19.20;99.90
13409;DHT22;6775;49.574;11.170;2023-07-13T02:56:03;19.10;99.90
13409;DHT22;6775;49.574;11.170;2023-07-13T02:58:32;19.00;99.90
13409;DHT22;6775;49.574;11.170;2023-07-13T03:01:09;19.00;99.90
13409;DHT22;6775;49.574;11.170;2023-07-13T03:03:38;19.00;99.90
13409;DHT22;6775;49.574;11.170;2023-07-13T03:06:06;18.80;99.90
13409;DHT22;6775;49.574;11.170;2023-07-13T03:08:36;18.90;99.90
13409;DHT22;6775;49.574;11.170;2023-07-13T03:11:06;18.90;99.90
13409;DHT22;6775;49.574;11.170;2023-07-13T03:13:35;18.80;99.90
13409;DHT22;6775;49.574;11.170;2023-07-13T03:16:05;18.80;99.90
13409;DHT22;6775;49.574;11.170;2023-07-13T03:18:36;18.70;99.90
13409;DHT22;6775;49.574;11.170;2023-07-13T03:21:05;18.60;99.90
13409;DHT22;6775;49.574;11.170;2023-07-13T03:23:36;18.50;99.90
13409;DHT22;6775;49.574;11.170;2023-07-13T03:26:07;18.50;99.90
13409;DHT22;6775;49.574;11.170;2023-07-13T03:28:37;18.60;99.90
13409;DHT22;6775;49.574;11.170;2023-07-13T03:31:09;18.50;99.90
13409;DHT22;6775;49.574;11.170;2023-07-13T03:33:38;18.50;99.90
13409;DHT22;6775;49.574;11.170;2023-07-13T03:36:15;18.40;99.90
13409;DHT22;6775;49.574;11.170;2023-07-13T03:38:46;18.30;99.90
13409;DHT22;6775;49.574;11.170;2023-07-13T03:41:15;18.30;99.90
13409;DHT22;6775;49.574;11.170;2023-07-13T03:43:43;18.30;99.90
13409;DHT22;6775;49.574;11.170;2023-07-13T03:46:13;18.20;99.90
13409;DHT22;6775;49.574;11.170;2023-07-13T03:48:41;18.30;99.90
13409;DHT22;6775;49.574;11.170;2023-07-13T03:51:12;18.10;99.90
13409;DHT22;6775;49.574;11.170;2023-07-13T03:53:43;18.20;99.90
13409;DHT22;6775;49.574;11.170;2023-07-13T03:56:13;18.10;99.90
13409;DHT22;6775;49.574;11.170;2023-07-13T03:58:43;18.10;99.90
13409;DHT22;6775;49.574;11.170;2023-07-13T04:01:15;18.10;99.90
13409;DHT22;6775;49.574;11.170;2023-07-13T04:03:45;18.20;99.90
13409;DHT22;6775;49.574;11.170;2023-07-13T04:06:16;18.30;99.90
13409;DHT22;6775;49.574;11.170;2023-07-13T04:08:49;18.30;99.90
13409;DHT22;6775;49.574;11.170;2023-07-13T04:11:20;18.30;99.90
13409;DHT22;6775;49.574;11.170;2023-07-13T04:13:50;18.30;99.90
13409;DHT22;6775;49.574;11.170;2023-07-13T04:16:20;18.40;99.90
13409;DHT22;6775;49.574;11.170;2023-07-13T04:18:49;18.40;99.90
13409;DHT22;6775;49.574;11.170;2023-07-13T04:21:21;18.40;99.90
13409;DHT22;6775;49.574;11.170;2023-07-13T04:23:49;18.50;99.90
13409;DHT22;6775;49.574;11.170;2023-07-13T04:26:18;18.50;99.90
13409;DHT22;6775;49.574;11.170;2023-07-13T04:28:48;18.50;99.90
13409;DHT22;6775;49.574;11.170;2023-07-13T04:31:17;18.50;99.90
13409;DHT22;6775;49.574;11.170;2023-07-13T04:33:47;18.50;99.90
13409;DHT22;6775;49.574;11.170;2023-07-13T04:36:15;18.50;99.90
13409;DHT22;6775;49.574;11.170;2023-07-13T04:38:44;18.50;99.90
13409;DHT22;6775;49.574;11.170;2023-07-13T04:41:13;18.50;99.90
13409;DHT22;6775;49.574;11.170;2023-07-13T04:43:42;18.40;99.90
13409;DHT22;6775;49.574;11.170;2023-07-13T04:46:12;18.40;99.90
13409;DHT22;6775;49.574;11.170;2023-07-13T04:48:49;18.40;99.90
13409;DHT22;6775;49.574;11.170;2023-07-13T04:51:19;18.40;99.90
13409;DHT22;6775;49.574;11.170;2023-07-13T04:53:48;18.30;99.90
13409;DHT22;6775;49.574;11.170;2023-07-13T04:56:22;18.40;99.90
13409;DHT22;6775;49.574;11.170;2023-07-13T04:58:50;18.50;99.90
13409;DHT22;6775;49.574;11.170;2023-07-13T05:01:18;18.60;99.90
13409;DHT22;6775;49.574;11.170;2023-07-13T05:03:48;18.60;99.90
13409;DHT22;6775;49.574;11.170;2023-07-13T05:06:16;18.70;99.90
13409;DHT22;6775;49.574;11.170;2023-07-13T05:08:44;18.70;99.90
13409;DHT22;6775;49.574;11.170;2023-07-13T05:11:12;18.80;99.90
13409;DHT22;6775;49.574;11.170;2023-07-13T05:13:40;18.80;99.90
13409;DHT22;6775;49.574;11.170;2023-07-13T05:16:08;18.80;99.90
13409;DHT22;6775;49.574;11.170;2023-07-13T05:18:37;18.90;99.90
13409;DHT22;6775;49.574;11.170;2023-07-13T05:21:10;18.90;99.90
13409;DHT22;6775;49.574;11.170;2023-07-13T05:23:40;19.00;99.90
13409;DHT22;6775;49.574;11.170;2023-07-13T05:26:10;18.90;99.90
13409;DHT22;6775;49.574;11.170;2023-07-13T05:28:39;18.90;99.90
13409;DHT22;6775;49.574;11.170;2023-07-13T05:31:08;19.00;99.90
13409;DHT22;6775;49.574;11.170;2023-07-13T05:33:38;19.00;99.90
13409;DHT22;6775;49.574;11.170;2023-07-13T05:36:07;19.00;99.90
13409;DHT22;6775;49.574;11.170;2023-07-13T05:38:36;19.00;99.90
13409;DHT22;6775;49.574;11.170;2023-07-13T05:41:04;19.10;99.90
13409;DHT22;6775;49.574;11.170;2023-07-13T05:43:32;19.20;99.90
13409;DHT22;6775;49.574;11.170;2023-07-13T05:46:01;19.20;99.90
13409;DHT22;6775;49.574;11.170;2023-07-13T05:48:29;19.30;99.90
13409;DHT22;6775;49.574;11.170;2023-07-13T05:50:57;19.40;99.90
13409;DHT22;6775;49.574;11.170;2023-07-13T05:53:25;19.60;99.90
13409;DHT22;6775;49.574;11.170;2023-07-13T05:55:55;19.70;99.90
13409;DHT22;6775;49.574;11.170;2023-07-13T05:58:26;19.80;99.90
13409;DHT22;6775;49.574;11.170;2023-07-13T06:01:00;19.70;99.90
13409;DHT22;6775;49.574;11.170;2023-07-13T06:03:30;19.90;99.90
13409;DHT22;6775;49.574;11.170;2023-07-13T06:05:59;19.90;99.90
13409;DHT22;6775;49.574;11.170;2023-07-13T06:08:28;20.00;99.90
13409;DHT22;6775;49.574;11.170;2023-07-13T06:11:03;20.10;99.90
13409;DHT22;6775;49.574;11.170;2023-07-13T06:13:33;20.10;99.90
13409;DHT22;6775;49.574;11.170;2023-07-13T06:16:02;20.20;99.90
13409;DHT22;6775;49.574;11.170;2023-07-13T06:18:32;20.20;99.90
13409;DHT22;6775;49.574;11.170;2023-07-13T06:21:05;20.30;99.90
13409;DHT22;6775;49.574;11.170;2023-07-13T06:23:34;20.40;99.90
13409;DHT22;6775;49.574;11.170;2023-07-13T06:26:05;20.50;99.90
13409;DHT22;6775;49.574;11.170;2023-07-13T06:28:34;20.50;99.90
13409;DHT22;6775;49.574;11.170;2023-07-13T06:31:05;20.30;99.90
13409;DHT22;6775;49.574;11.170;2023-07-13T06:33:36;20.40;99.80
13409;DHT22;6775;49.574;11.170;2023-07-13T06:36:06;20.40;99.60
13409;DHT22;6775;49.574;11.170;2023-07-13T06:38:35;20.50;99.50
13409;DHT22;6775;49.574;11.170;2023-07-13T06:41:05;20.60;99.50
13409;DHT22;6775;49.574;11.170;2023-07-13T06:43:34;20.80;99.20
13409;DHT22;6775;49.574;11.170;2023-07-13T06:46:02;21.10;99.10
13409;DHT22;6775;49.574;11.170;2023-07-13T06:48:31;21.30;98.60
13409;DHT22;6775;49.574;11.170;2023-07-13T06:50:59;21.40;98.20
13409;DHT22;6775;49.574;11.170;2023-07-13T06:53:27;21.40;98.10
13409;DHT22;6775;49.574;11.170;2023-07-13T06:55:55;21.50;97.90
13409;DHT22;6775;49.574;11.170;2023-07-13T06:58:24;21.30;97.80
13409;DHT22;6775;49.574;11.170;2023-07-13T07:00:52;21.30;97.60
13409;DHT22;6775;49.574;11.170;2023-07-13T07:03:21;21.30;97.40
13409;DHT22;6775;49.574;11.170;2023-07-13T07:05:49;21.30;97.50
13409;DHT22;6775;49.574;11.170;2023-07-13T07:08:17;21.40;96.90
13409;DHT22;6775;49.574;11.170;2023-07-13T07:10:45;21.40;96.80
13409;DHT22;6775;49.574;11.170;2023-07-13T07:13:13;21.30;96.70
13409;DHT22;6775;49.574;11.170;2023-07-13T07:15:43;21.40;96.80
13409;DHT22;6775;49.574;11.170;2023-07-13T07:18:11;21.40;96.60
13409;DHT22;6775;49.574;11.170;2023-07-13T07:20:39;21.70;96.50
13409;DHT22;6775;49.574;11.170;2023-07-13T07:23:07;21.90;96.40
13409;DHT22;6775;49.574;11.170;2023-07-13T07:25:35;22.00;95.80
13409;DHT22;6775;49.574;11.170;2023-07-13T07:28:08;21.80;95.20
13409;DHT22;6775;49.574;11.170;2023-07-13T07:30:43;21.80;95.20
13409;DHT22;6775;49.574;11.170;2023-07-13T07:33:14;21.90;95.00
13409;DHT22;6775;49.574;11.170;2023-07-13T07:35:43;22.10;94.50
13409;DHT22;6775;49.574;11.170;2023-07-13T07:38:31;22.20;94.50
13409;DHT22;6775;49.574;11.170;2023-07-13T07:41:02;22.20;94.30
13409;DHT22;6775;49.574;11.170;2023-07-13T07:43:33;22.20;94.30
13409;DHT22;6775;49.574;11.170;2023-07-13T07:46:03;22.20;94.30
13409;DHT22;6775;49.574;11.170;2023-07-13T07:48:31;22.40;94.10
13409;DHT22;6775;49.574;11.170;2023-07-13T07:51:00;22.60;93.70
13409;DHT22;6775;49.574;11.170;2023-07-13T07:53:28;22.70;93.50
13409;DHT22;6775;49.574;11.170;2023-07-13T07:55:59;22.80;93.40
13409;DHT22;6775;49.574;11.170;2023-07-13T07:58:47;22.60;92.80
13409;DHT22;6775;49.574;11.170;2023-07-13T08:01:20;22.60;92.80
13409;DHT22;6775;49.574;11.170;2023-07-13T08:03:51;22.70;92.30
13409;DHT22;6775;49.574;11.170;2023-07-13T08:06:23;22.80;92.30
13409;DHT22;6775;49.574;11.170;2023-07-13T08:08:54;22.90;92.20
13409;DHT22;6775;49.574;11.170;2023-07-13T08:11:22;23.00;92.20
13409;DHT22;6775;49.574;11.170;2023-07-13T08:13:53;23.30;92.10
13409;DHT22;6775;49.574;11.170;2023-07-13T08:16:23;23.40;91.60
13409;DHT22;6775;49.574;11.170;2023-07-13T08:18:51;23.40;91.20
13409;DHT22;6775;49.574;11.170;2023-07-13T08:21:19;23.50;90.90
13409;DHT22;6775;49.574;11.170;2023-07-13T08:23:48;23.70;88.40
13409;DHT22;6775;49.574;11.170;2023-07-13T08:26:16;23.70;85.80
13409;DHT22;6775;49.574;11.170;2023-07-13T08:28:45;23.70;86.70
13409;DHT22;6775;49.574;11.170;2023-07-13T08:31:13;23.70;87.30
13409;DHT22;6775;49.574;11.170;2023-07-13T08:33:43;23.90;85.10
13409;DHT22;6775;49.574;11.170;2023-07-13T08:36:11;23.90;84.00
13409;DHT22;6775;49.574;11.170;2023-07-13T08:38:40;24.10;83.70
13409;DHT22;6775;49.574;11.170;2023-07-13T08:41:13;24.20;83.20
13409;DHT22;6775;49.574;11.170;2023-07-13T08:43:46;24.30;82.50
13409;DHT22;6775;49.574;11.170;2023-07-13T08:46:20;24.40;80.90
13409;DHT22;6775;49.574;11.170;2023-07-13T08:49:01;24.50;80.30
13409;DHT22;6775;49.574;11.170;2023-07-13T08:51:37;24.70;79.90
13409;DHT22;6775;49.574;11.170;2023-07-13T08:54:16;24.70;76.10
13409;DHT22;6775;49.574;11.170;2023-07-13T08:56:50;24.80;76.80
13409;DHT22;6775;49.574;11.170;2023-07-13T08:59:21;24.80;75.50
13409;DHT22;6775;49.574;11.170;2023-07-13T09:02:05;24.90;77.10
13409;DHT22;6775;49.574;11.170;2023-07-13T09:04:56;25.00;76.60
13409;DHT22;6775;49.574;11.170;2023-07-13T09:07:42;25.00;72.30
13409;DHT22;6775;49.574;11.170;2023-07-13T09:10:27;25.00;70.60
13409;DHT22;6775;49.574;11.170;2023-07-13T09:13:06;25.20;70.70
13409;DHT22;6775;49.574;11.170;2023-07-13T09:15:48;25.40;69.10
13409;DHT22;6775;49.574;11.170;2023-07-13T09:18:23;25.60;69.60
13409;DHT22;6775;49.574;11.170;2023-07-13T09:21:00;25.80;68.80
13409;DHT22;6775;49.574;11.170;2023-07-13T09:23:32;25.90;65.60
13409;DHT22;6775;49.574;11.170;2023-07-13T09:26:02;26.10;65.50
13409;DHT22;6775;49.574;11.170;2023-07-13T09:28:37;26.10;63.00
13409;DHT22;6775;49.574;11.170;2023-07-13T09:31:10;26.10;63.10
13409;DHT22;6775;49.574;11.170;2023-07-13T09:33:42;26.20;63.20
13409;DHT22;6775;49.574;11.170;2023-07-13T09:36:19;26.30;63.40
13409;DHT22;6775;49.574;11.170;2023-07-13T09:39:02;26.40;63.10
13409;DHT22;6775;49.574;11.170;2023-07-13T09:41:39;26.60;62.50
13409;DHT22;6775;49.574;11.170;2023-07-13T09:44:18;26.70;62.70
13409;DHT22;6775;49.574;11.170;2023-07-13T09:46:57;26.70;60.30
13409;DHT22;6775;49.574;11.170;2023-07-13T09:49:26;26.60;60.20
13409;DHT22;6775;49.574;11.170;2023-07-13T09:52:02;26.20;60.80
13409;DHT22;6775;49.574;11.170;2023-07-13T09:54:34;25.90;61.20
13409;DHT22;6775;49.574;11.170;2023-07-13T09:57:12;25.90;60.30
13409;DHT22;6775;49.574;11.170;2023-07-13T09:59:44;25.70;60.20
13409;DHT22;6775;49.574;11.170;2023-07-13T10:02:24;25.50;60.40
13409;DHT22;6775;49.574;11.170;2023-07-13T10:04:58;25.30;61.10
13409;DHT22;6775;49.574;11.170;2023-07-13T10:07:29;25.20;61.40
13409;DHT22;6775;49.574;11.170;2023-07-13T10:09:59;25.20;61.80
13409;DHT22;6775;49.574;11.170;2023-07-13T10:12:35;25.30;62.20
13409;DHT22;6775;49.574;11.170;2023-07-13T10:15:13;25.30;62.70
13409;DHT22;6775;49.574;11.170;2023-07-13T10:17:51;25.30;62.80
13409;DHT22;6775;49.574;11.170;2023-07-13T10:20:21;25.30;62.00
13409;DHT22;6775;49.574;11.170;2023-07-13T10:22:54;25.40;62.50
13409;DHT22;6775;49.574;11.170;2023-07-13T10:25:29;25.60;62.20
13409;DHT22;6775;49.574;11.170;2023-07-13T10:28:03;25.80;61.00
13409;DHT22;6775;49.574;11.170;2023-07-13T10:30:41;25.90;60.50
13409;DHT22;6775;49.574;11.170;2023-07-13T10:33:13;25.90;60.10
13409;DHT22;6775;49.574;11.170;2023-07-13T10:35:43;26.00;59.80
13409;DHT22;6775;49.574;11.170;2023-07-13T10:38:19;26.10;59.60
13409;DHT22;6775;49.574;11.170;2023-07-13T10:40:57;26.20;59.40
13409;DHT22;6775;49.574;11.170;2023-07-13T10:43:29;26.40;59.20
13409;DHT22;6775;49.574;11.170;2023-07-13T10:46:04;26.40;59.40
13409;DHT22;6775;49.574;11.170;2023-07-13T10:48:35;26.50;59.30
13409;DHT22;6775;49.574;11.170;2023-07-13T10:51:06;26.20;58.80
13409;DHT22;6775;49.574;11.170;2023-07-13T10:53:38;26.10;59.50
13409;DHT22;6775;49.574;11.170;2023-07-13T10:56:21;26.10;59.20
13409;DHT22;6775;49.574;11.170;2023-07-13T10:59:06;25.90;59.40
13409;DHT22;6775;49.574;11.170;2023-07-13T11:01:50;26.00;60.40
13409;DHT22;6775;49.574;11.170;2023-07-13T11:04:23;26.30;60.00
13409;DHT22;6775;49.574;11.170;2023-07-13T11:06:57;26.50;59.30
13409;DHT22;6775;49.574;11.170;2023-07-13T11:09:39;26.50;59.20
13409;DHT22;6775;49.574;11.170;2023-07-13T11:15:31;26.60;59.80
13409;DHT22;6775;49.574;11.170;2023-07-13T11:18:20;26.50;59.00
13409;DHT22;6775;49.574;11.170;2023-07-13T11:20:52;26.20;58.90
13409;DHT22;6775;49.574;11.170;2023-07-13T11:24:02;26.40;59.20
13409;DHT22;6775;49.574;11.170;2023-07-13T11:26:41;26.70;59.20
13409;DHT22;6775;49.574;11.170;2023-07-13T11:29:25;26.90;59.40
13409;DHT22;6775;49.574;11.170;2023-07-13T11:32:10;26.90;58.70
13409;DHT22;6775;49.574;11.170;2023-07-13T11:34:50;26.60;58.50
13409;DHT22;6775;49.574;11.170;2023-07-13T11:37:19;26.70;58.50
13409;DHT22;6775;49.574;11.170;2023-07-13T11:39:50;26.90;58.40
13409;DHT22;6775;49.574;11.170;2023-07-13T11:42:21;27.10;58.10
13409;DHT22;6775;49.574;11.170;2023-07-13T11:44:52;27.40;58.20
13409;DHT22;6775;49.574;11.170;2023-07-13T11:47:40;27.60;57.60
13409;DHT22;6775;49.574;11.170;2023-07-13T11:50:18;27.70;57.20
13409;DHT22;6775;49.574;11.170;2023-07-13T11:52:48;27.70;56.70
13409;DHT22;6775;49.574;11.170;2023-07-13T11:55:20;27.70;56.50
13409;DHT22;6775;49.574;11.170;2023-07-13T11:57:58;27.70;56.80
13409;DHT22;6775;49.574;11.170;2023-07-13T12:00:31;27.60;55.70
13409;DHT22;6775;49.574;11.170;2023-07-13T12:03:02;27.30;56.50
13409;DHT22;6775;49.574;11.170;2023-07-13T12:05:32;26.80;57.30
13409;DHT22;6775;49.574;11.170;2023-07-13T12:08:09;26.30;57.80
13409;DHT22;6775;49.574;11.170;2023-07-13T12:10:57;26.10;58.90
13409;DHT22;6775;49.574;11.170;2023-07-13T12:13:28;26.30;58.90
13409;DHT22;6775;49.574;11.170;2023-07-13T12:15:57;26.40;58.30
13409;DHT22;6775;49.574;11.170;2023-07-13T12:18:30;26.30;58.40
13409;DHT22;6775;49.574;11.170;2023-07-13T12:21:00;26.20;58.90
13409;DHT22;6775;49.574;11.170;2023-07-13T12:23:33;26.50;59.50
13409;DHT22;6775;49.574;11.170;2023-07-13T12:26:04;26.50;59.10
13409;DHT22;6775;49.574;11.170;2023-07-13T12:28:40;26.60;58.90
13409;DHT22;6775;49.574;11.170;2023-07-13T12:31:25;26.70;59.00
13409;DHT22;6775;49.574;11.170;2023-07-13T12:34:00;26.70;58.70
13409;DHT22;6775;49.574;11.170;2023-07-13T12:36:32;26.50;58.90
13409;DHT22;6775;49.574;11.170;2023-07-13T12:39:11;26.60;58.70
13409;DHT22;6775;49.574;11.170;2023-07-13T12:41:42;26.70;59.30
13409;DHT22;6775;49.574;11.170;2023-07-13T12:44:14;26.60;58.80
13409;DHT22;6775;49.574;11.170;2023-07-13T12:46:58;26.60;58.90
13409;DHT22;6775;49.574;11.170;2023-07-13T12:49:33;26.70;57.90
13409;DHT22;6775;49.574;11.170;2023-07-13T12:52:09;26.80;58.10
13409;DHT22;6775;49.574;11.170;2023-07-13T12:54:52;26.80;58.30
13409;DHT22;6775;49.574;11.170;2023-07-13T12:57:38;27.00;57.80
13409;DHT22;6775;49.574;11.170;2023-07-13T13:00:22;27.20;58.30
13409;DHT22;6775;49.574;11.170;2023-07-13T13:02:54;27.30;58.00
13409;DHT22;6775;49.574;11.170;2023-07-13T13:05:41;27.20;58.20
13409;DHT22;6775;49.574;11.170;2023-07-13T13:08:12;27.00;58.20
13409;DHT22;6775;49.574;11.170;2023-07-13T13:10:41;26.90;58.30
13409;DHT22;6775;49.574;11.170;2023-07-13T13:13:09;26.90;58.80
13409;DHT22;6775;49.574;11.170;2023-07-13T13:15:38;27.10;58.80
13409;DHT22;6775;49.574;11.170;2023-07-13T13:18:15;27.10;58.30
13409;DHT22;6775;49.574;11.170;2023-07-13T13:20:45;27.10;58.50
13409;DHT22;6775;49.574;11.170;2023-07-13T13:23:15;27.40;59.00
13409;DHT22;6775;49.574;11.170;2023-07-13T13:25:45;27.70;58.70
13409;DHT22;6775;49.574;11.170;2023-07-13T13:28:18;27.60;57.50
13409;DHT22;6775;49.574;11.170;2023-07-13T13:30:50;27.30;58.30
13409;DHT22;6775;49.574;11.170;2023-07-13T13:33:20;27.00;58.50
13409;DHT22;6775;49.574;11.170;2023-07-13T13:35:50;26.70;59.00
13409;DHT22;6775;49.574;11.170;2023-07-13T13:38:21;26.50;59.30
13409;DHT22;6775;49.574;11.170;2023-07-13T13:40:53;26.50;59.30
13409;DHT22;6775;49.574;11.170;2023-07-13T13:43:23;26.70;59.10
13409;DHT22;6775;49.574;11.170;2023-07-13T13:45:56;26.90;59.20
13409;DHT22;6775;49.574;11.170;2023-07-13T13:48:29;27.00;59.20
13409;DHT22;6775;49.574;11.170;2023-07-13T13:51:01;26.90;58.90
13409;DHT22;6775;49.574;11.170;2023-07-13T13:53:40;26.80;59.20
13409;DHT22;6775;49.574;11.170;2023-07-13T13:56:08;26.80;59.20
13409;DHT22;6775;49.574;11.170;2023-07-13T13:58:37;27.00;59.60
13409;DHT22;6775;49.574;11.170;2023-07-13T14:01:12;27.20;59.40
13409;DHT22;6775;49.574;11.170;2023-07-13T14:03:44;27.20;59.00
13409;DHT22;6775;49.574;11.170;2023-07-13T14:06:15;27.00;58.60
13409;DHT22;6775;49.574;11.170;2023-07-13T14:08:44;26.90;58.70
13409;DHT22;6775;49.574;11.170;2023-07-13T14:11:15;26.90;59.00
13409;DHT22;6775;49.574;11.170;2023-07-13T14:13:47;27.10;58.50
13409;DHT22;6775;49.574;11.170;2023-07-13T14:16:19;27.20;57.90
13409;DHT22;6775;49.574;11.170;2023-07-13T14:18:51;27.10;57.90
13409;DHT22;6775;49.574;11.170;2023-07-13T14:21:20;26.90;58.10
13409;DHT22;6775;49.574;11.170;2023-07-13T14:23:50;26.80;58.30
13409;DHT22;6775;49.574;11.170;2023-07-13T14:26:20;26.70;58.60
13409;DHT22;6775;49.574;11.170;2023-07-13T14:28:52;26.40;58.80
13409;DHT22;6775;49.574;11.170;2023-07-13T14:31:24;26.20;58.50
13409;DHT22;6775;49.574;11.170;2023-07-13T14:33:57;26.00;58.90
13409;DHT22;6775;49.574;11.170;2023-07-13T14:36:28;25.90;58.70
13409;DHT22;6775;49.574;11.170;2023-07-13T14:39:00;25.90;59.20
13409;DHT22;6775;49.574;11.170;2023-07-13T14:41:37;26.10;59.50
13409;DHT22;6775;49.574;11.170;2023-07-13T14:44:11;26.40;57.90
13409;DHT22;6775;49.574;11.170;2023-07-13T14:46:41;26.30;58.10
13409;DHT22;6775;49.574;11.170;2023-07-13T14:49:16;26.30;58.40
13409;DHT22;6775;49.574;11.170;2023-07-13T14:51:51;26.30;57.90
13409;DHT22;6775;49.574;11.170;2023-07-13T14:54:20;26.50;57.80
13409;DHT22;6775;49.574;11.170;2023-07-13T14:56:48;26.70;58.30
13409;DHT22;6775;49.574;11.170;2023-07-13T14:59:17;26.90;58.50
13409;DHT22;6775;49.574;11.170;2023-07-13T15:01:48;27.10;57.70
13409;DHT22;6775;49.574;11.170;2023-07-13T15:04:17;27.10;57.30
13409;DHT22;6775;49.574;11.170;2023-07-13T15:06:56;27.00;57.30
13409;DHT22;6775;49.574;11.170;2023-07-13T15:09:26;26.90;57.40
13409;DHT22;6775;49.574;11.170;2023-07-13T15:11:56;26.90;57.80
13409;DHT22;6775;49.574;11.170;2023-07-13T15:14:26;27.00;57.60
13409;DHT22;6775;49.574;11.170;2023-07-13T15:16:59;27.10;57.10
13409;DHT22;6775;49.574;11.170;2023-07-13T15:19:28;27.10;56.60
13409;DHT22;6775;49.574;11.170;2023-07-13T15:21:57;26.90;56.40
13409;DHT22;6775;49.574;11.170;2023-07-13T15:24:27;26.70;57.20
13409;DHT22;6775;49.574;11.170;2023-07-13T15:26:55;26.60;57.40
13409;DHT22;6775;49.574;11.170;2023-07-13T15:29:23;26.40;57.80
13409;DHT22;6775;49.574;11.170;2023-07-13T15:31:51;26.40;58.10
13409;DHT22;6775;49.574;11.170;2023-07-13T15:34:25;26.50;58.40
13409;DHT22;6775;49.574;11.170;2023-07-13T15:36:54;26.50;57.90
13409;DHT22;6775;49.574;11.170;2023-07-13T15:39:22;26.40;58.50
13409;DHT22;6775;49.574;11.170;2023-07-13T15:41:51;26.40;58.40
13409;DHT22;6775;49.574;11.170;2023-07-13T15:44:23;26.30;58.00
13409;DHT22;6775;49.574;11.170;2023-07-13T15:46:55;26.20;58.60
13409;DHT22;6775;49.574;11.170;2023-07-13T15:49:25;26.10;58.80
13409;DHT22;6775;49.574;11.170;2023-07-13T15:51:54;25.90;59.20
13409;DHT22;6775;49.574;11.170;2023-07-13T15:54:23;25.90;59.70
13409;DHT22;6775;49.574;11.170;2023-07-13T15:56:53;25.80;59.80
13409;DHT22;6775;49.574;11.170;2023-07-13T15:59:23;25.70;60.00
13409;DHT22;6775;49.574;11.170;2023-07-13T16:01:51;25.80;60.10